sensor_id;sensor_type;location;lat;lon;timestamp;pressure;altitude;pressure_sealevel;temperature;humidity
56241;BME280;42155;53.096;23.226;2022-08-03T00:01:07;100260.88;;;14.84;76.53
56241;BME280;42155;53.096;23.226;2022-08-03T00:03:08;100269.84;;;14.83;75.96
56241;BME280;42155;53.096;23.226;2022-08-03T00:05:08;100265.66;;;14.81;75.96
56241;BME280;42155;53.096;23.226;2022-08-03T00:07:08;100270.41;;;14.77;75.95
56241;BME280;42155;53.096;23.226;2022-08-03T00:09:09;100266.06;;;14.76;76.21
56241;BME280;42155;53.096;23.226;2022-08-03T00:11:10;100267.91;;;14.75;75.99
56241;BME280;42155;53.096;23.226;2022-08-03T00:13:11;100270.56;;;14.75;76.08
56241;BME280;42155;53.096;23.226;2022-08-03T00:15:11;100271.56;;;14.74;76.04
56241;BME280;42155;53.096;23.226;2022-08-03T00:17:12;100268.19;;;14.72;76.26
56241;BME280;42155;53.096;23.226;2022-08-03T00:19:12;100273.78;;;14.69;76.25
56241;BME280;42155;53.096;23.226;2022-08-03T00:21:12;100277.75;;;14.65;76.40
56241;BME280;42155;53.096;23.226;2022-08-03T00:23:13;100272.53;;;14.64;75.91
56241;BME280;42155;53.096;23.226;2022-08-03T00:25:13;100278.31;;;14.59;75.79
56241;BME280;42155;53.096;23.226;2022-08-03T00:27:13;100287.31;;;14.58;76.02
56241;BME280;42155;53.096;23.226;2022-08-03T00:29:14;100281.28;;;14.56;76.01
56241;BME280;42155;53.096;23.226;2022-08-03T00:31:14;100280.56;;;14.54;76.16
56241;BME280;42155;53.096;23.226;2022-08-03T00:33:15;100265.34;;;14.45;76.09
56241;BME280;42155;53.096;23.226;2022-08-03T00:35:15;100272.13;;;14.49;76.03
56241;BME280;42155;53.096;23.226;2022-08-03T00:37:16;100257.63;;;14.32;75.75
56241;BME280;42155;53.096;23.226;2022-08-03T00:39:16;100283.50;;;14.51;76.48
56241;BME280;42155;53.096;23.226;2022-08-03T00:41:16;100283.50;;;14.51;76.16
56241;BME280;42155;53.096;23.226;2022-08-03T00:43:17;100280.00;;;14.50;76.25
56241;BME280;42155;53.096;23.226;2022-08-03T00:45:17;100260.16;;;14.34;76.01
56241;BME280;42155;53.096;23.226;2022-08-03T00:47:18;100282.22;;;14.45;76.33
56241;BME280;42155;53.096;23.226;2022-08-03T00:49:18;100287.72;;;14.44;76.35
56241;BME280;42155;53.096;23.226;2022-08-03T00:51:20;100271.69;;;14.34;76.47
56241;BME280;42155;53.096;23.226;2022-08-03T00:53:21;100286.97;;;14.42;76.31
56241;BME280;42155;53.096;23.226;2022-08-03T00:55:21;100274.94;;;14.38;76.04
56241;BME280;42155;53.096;23.226;2022-08-03T00:57:22;100274.34;;;14.34;76.07
56241;BME280;42155;53.096;23.226;2022-08-03T00:59:22;100289.22;;;14.37;76.37
56241;BME280;42155;53.096;23.226;2022-08-03T01:01:23;100296.28;;;14.38;76.31
56241;BME280;42155;53.096;23.226;2022-08-03T01:03:23;100279.69;;;14.34;76.53
56241;BME280;42155;53.096;23.226;2022-08-03T01:05:24;100272.78;;;14.32;76.19
56241;BME280;42155;53.096;23.226;2022-08-03T01:07:45;100287.84;;;14.42;76.13
56241;BME280;42155;53.096;23.226;2022-08-03T01:16:46;100281.53;;;14.34;76.31
56241;BME280;42155;53.096;23.226;2022-08-03T01:21:33;100285.31;;;14.41;76.31
56241;BME280;42155;53.096;23.226;2022-08-03T01:23:51;100279.41;;;14.27;76.59
56241;BME280;42155;53.096;23.226;2022-08-03T01:26:05;100298.81;;;14.39;76.53
56241;BME280;42155;53.096;23.226;2022-08-03T01:30:47;100277.03;;;14.24;76.74
56241;BME280;42155;53.096;23.226;2022-08-03T01:32:56;100299.38;;;14.43;76.76
56241;BME280;42155;53.096;23.226;2022-08-03T01:35:03;100273.94;;;14.29;76.92
56241;BME280;42155;53.096;23.226;2022-08-03T01:37:06;100285.88;;;14.35;77.02
56241;BME280;42155;53.096;23.226;2022-08-03T01:39:09;100297.66;;;14.42;76.84
56241;BME280;42155;53.096;23.226;2022-08-03T01:41:12;100299.50;;;14.41;76.49
56241;BME280;42155;53.096;23.226;2022-08-03T01:43:15;100298.81;;;14.39;76.81
56241;BME280;42155;53.096;23.226;2022-08-03T01:45:17;100278.69;;;14.25;76.99
56241;BME280;42155;53.096;23.226;2022-08-03T01:47:19;100293.47;;;14.30;77.46
56241;BME280;42155;53.096;23.226;2022-08-03T01:49:20;100300.91;;;14.36;77.31
56241;BME280;42155;53.096;23.226;2022-08-03T01:51:21;100300.63;;;14.39;77.08
56241;BME280;42155;53.096;23.226;2022-08-03T01:53:22;100293.47;;;14.39;77.00
56241;BME280;42155;53.096;23.226;2022-08-03T01:55:24;100304.00;;;14.41;77.32
56241;BME280;42155;53.096;23.226;2022-08-03T01:57:27;100293.03;;;14.44;77.18
56241;BME280;42155;53.096;23.226;2022-08-03T01:59:29;100287.44;;;14.47;77.45
56241;BME280;42155;53.096;23.226;2022-08-03T02:01:32;100281.38;;;14.35;76.69
56241;BME280;42155;53.096;23.226;2022-08-03T02:03:36;100284.78;;;14.47;77.21
56241;BME280;42155;53.096;23.226;2022-08-03T02:05:38;100301.75;;;14.46;76.74
56241;BME280;42155;53.096;23.226;2022-08-03T02:07:40;100299.38;;;14.43;76.62
56241;BME280;42155;53.096;23.226;2022-08-03T02:09:45;100304.16;;;14.39;76.63
56241;BME280;42155;53.096;23.226;2022-08-03T02:11:46;100295.56;;;14.36;76.46
56241;BME280;42155;53.096;23.226;2022-08-03T02:13:49;100289.81;;;14.31;76.42
56241;BME280;42155;53.096;23.226;2022-08-03T02:15:51;100296.81;;;14.32;76.87
56241;BME280;42155;53.096;23.226;2022-08-03T02:17:53;100298.81;;;14.30;76.65
56241;BME280;42155;53.096;23.226;2022-08-03T02:19:57;100292.75;;;14.27;76.84
56241;BME280;42155;53.096;23.226;2022-08-03T02:21:59;100293.72;;;14.26;76.63
56241;BME280;42155;53.096;23.226;2022-08-03T02:24:00;100303.56;;;14.26;76.91
56241;BME280;42155;53.096;23.226;2022-08-03T02:26:02;100294.88;;;14.24;77.18
56241;BME280;42155;53.096;23.226;2022-08-03T02:28:10;100293.03;;;14.24;77.24
56241;BME280;42155;53.096;23.226;2022-08-03T02:30:12;100291.22;;;14.25;77.35
56241;BME280;42155;53.096;23.226;2022-08-03T02:32:15;100294.88;;;14.24;77.34
56241;BME280;42155;53.096;23.226;2022-08-03T02:34:18;100291.22;;;14.25;77.58
56241;BME280;42155;53.096;23.226;2022-08-03T02:36:22;100289.13;;;14.29;77.36
56241;BME280;42155;53.096;23.226;2022-08-03T02:38:30;100287.72;;;14.34;77.28
56241;BME280;42155;53.096;23.226;2022-08-03T02:40:32;100285.59;;;14.38;77.26
56241;BME280;42155;53.096;23.226;2022-08-03T02:42:34;100262.41;;;14.29;77.24
56241;BME280;42155;53.096;23.226;2022-08-03T02:44:35;100286.28;;;14.40;77.28
56241;BME280;42155;53.096;23.226;2022-08-03T02:46:38;100288.81;;;14.41;77.23
56241;BME280;42155;53.096;23.226;2022-08-03T02:48:41;100280.38;;;14.46;76.80
56241;BME280;42155;53.096;23.226;2022-08-03T02:50:43;100283.50;;;14.51;76.99
56241;BME280;42155;53.096;23.226;2022-08-03T02:52:46;100290.56;;;14.52;76.86
56241;BME280;42155;53.096;23.226;2022-08-03T02:54:48;100282.53;;;14.52;76.70
56241;BME280;42155;53.096;23.226;2022-08-03T02:56:51;100286.19;;;14.51;76.76
56241;BME280;42155;53.096;23.226;2022-08-03T02:58:53;100280.00;;;14.50;76.75
56241;BME280;42155;53.096;23.226;2022-08-03T03:00:56;100267.59;;;14.40;76.49
56241;BME280;42155;53.096;23.226;2022-08-03T03:02:58;100284.22;;;14.53;76.52
56241;BME280;42155;53.096;23.226;2022-08-03T03:05:00;100281.41;;;14.55;76.29
56241;BME280;42155;53.096;23.226;2022-08-03T03:07:01;100288.31;;;14.57;77.10
56241;BME280;42155;53.096;23.226;2022-08-03T03:09:01;100287.88;;;14.62;77.13
56241;BME280;42155;53.096;23.226;2022-08-03T03:11:02;100292.50;;;14.69;76.71
56241;BME280;42155;53.096;23.226;2022-08-03T03:13:04;100286.72;;;14.74;76.43
56241;BME280;42155;53.096;23.226;2022-08-03T03:15:05;100285.88;;;14.73;76.42
56241;BME280;42155;53.096;23.226;2022-08-03T03:17:08;100265.94;;;14.58;76.25
56241;BME280;42155;53.096;23.226;2022-08-03T03:19:10;100289.81;;;14.69;76.54
56241;BME280;42155;53.096;23.226;2022-08-03T03:21:13;100274.66;;;14.60;76.74
56241;BME280;42155;53.096;23.226;2022-08-03T03:25:24;100292.94;;;14.74;76.73
56241;BME280;42155;53.096;23.226;2022-08-03T03:27:24;100293.47;;;14.78;76.28
56241;BME280;42155;53.096;23.226;2022-08-03T03:29:25;100298.69;;;14.80;76.59
56241;BME280;42155;53.096;23.226;2022-08-03T03:31:26;100299.22;;;14.83;76.02
56241;BME280;42155;53.096;23.226;2022-08-03T03:33:26;100283.19;;;14.83;75.86
56241;BME280;42155;53.096;23.226;2022-08-03T03:35:27;100296.53;;;14.93;76.18
56241;BME280;42155;53.096;23.226;2022-08-03T03:37:28;100299.78;;;14.96;75.83
56241;BME280;42155;53.096;23.226;2022-08-03T03:39:28;100303.28;;;14.97;76.08
56241;BME280;42155;53.096;23.226;2022-08-03T03:41:29;100275.06;;;14.85;76.07
56241;BME280;42155;53.096;23.226;2022-08-03T03:43:29;100297.66;;;15.10;76.20
56241;BME280;42155;53.096;23.226;2022-08-03T03:45:30;100265.34;;;14.93;75.82
56241;BME280;42155;53.096;23.226;2022-08-03T03:47:30;100294.50;;;15.24;75.63
56241;BME280;42155;53.096;23.226;2022-08-03T03:49:32;100305.56;;;15.48;75.44
56241;BME280;42155;53.096;23.226;2022-08-03T03:51:33;100309.94;;;15.87;74.50
56241;BME280;42155;53.096;23.226;2022-08-03T03:53:33;100272.50;;;16.40;72.72
56241;BME280;42155;53.096;23.226;2022-08-03T03:55:34;100307.91;;;17.92;69.94
56241;BME280;42155;53.096;23.226;2022-08-03T03:57:34;100302.22;;;19.74;65.25
56241;BME280;42155;53.096;23.226;2022-08-03T03:59:38;100301.34;;;21.87;60.06
56241;BME280;42155;53.096;23.226;2022-08-03T04:01:38;100281.28;;;23.53;54.80
56241;BME280;42155;53.096;23.226;2022-08-03T04:03:39;100286.72;;;24.88;51.60
56241;BME280;42155;53.096;23.226;2022-08-03T04:05:39;100276.97;;;25.72;49.45
56241;BME280;42155;53.096;23.226;2022-08-03T04:07:57;100299.50;;;27.01;47.58
56241;BME280;42155;53.096;23.226;2022-08-03T04:09:57;100277.81;;;28.23;44.68
56241;BME280;42155;53.096;23.226;2022-08-03T04:11:59;100281.00;;;29.38;42.82
56241;BME280;42155;53.096;23.226;2022-08-03T04:16:09;100287.28;;;29.74;41.50
56241;BME280;42155;53.096;23.226;2022-08-03T04:18:12;100284.56;;;30.14;40.57
56241;BME280;42155;53.096;23.226;2022-08-03T04:20:12;100282.03;;;31.04;39.22
56241;BME280;42155;53.096;23.226;2022-08-03T04:22:17;100276.81;;;32.02;37.65
56241;BME280;42155;53.096;23.226;2022-08-03T04:24:19;100280.78;;;32.92;36.35
56241;BME280;42155;53.096;23.226;2022-08-03T04:26:21;100287.00;;;33.57;35.12
56241;BME280;42155;53.096;23.226;2022-08-03T04:28:24;100289.44;;;34.16;34.49
56241;BME280;42155;53.096;23.226;2022-08-03T04:30:26;100259.78;;;34.59;33.66
56241;BME280;42155;53.096;23.226;2022-08-03T04:32:28;100290.94;;;35.05;33.14
56241;BME280;42155;53.096;23.226;2022-08-03T04:34:30;100284.56;;;35.15;32.82
56241;BME280;42155;53.096;23.226;2022-08-03T04:36:32;100291.22;;;35.09;32.84
56241;BME280;42155;53.096;23.226;2022-08-03T04:38:38;100292.59;;;34.81;33.05
56241;BME280;42155;53.096;23.226;2022-08-03T04:40:41;100293.34;;;34.45;34.20
56241;BME280;42155;53.096;23.226;2022-08-03T04:42:43;100290.16;;;33.91;34.92
56241;BME280;42155;53.096;23.226;2022-08-03T04:44:44;100285.22;;;32.71;36.87
56241;BME280;42155;53.096;23.226;2022-08-03T04:46:46;100291.59;;;31.57;38.51
56241;BME280;42155;53.096;23.226;2022-08-03T04:48:47;100269.22;;;30.59;40.38
56241;BME280;42155;53.096;23.226;2022-08-03T04:50:48;100301.34;;;30.47;40.96
56241;BME280;42155;53.096;23.226;2022-08-03T04:52:48;100298.25;;;30.43;41.17
56241;BME280;42155;53.096;23.226;2022-08-03T04:54:48;100300.78;;;30.61;41.40
56241;BME280;42155;53.096;23.226;2022-08-03T04:56:49;100297.78;;;30.63;40.74
56241;BME280;42155;53.096;23.226;2022-08-03T04:58:49;100308.72;;;30.75;40.74
56241;BME280;42155;53.096;23.226;2022-08-03T05:00:50;100308.25;;;30.66;40.20
56241;BME280;42155;53.096;23.226;2022-08-03T05:02:50;100305.25;;;30.51;41.23
56241;BME280;42155;53.096;23.226;2022-08-03T05:04:50;100284.75;;;30.25;40.94
56241;BME280;42155;53.096;23.226;2022-08-03T05:06:50;100298.72;;;30.23;41.47
56241;BME280;42155;53.096;23.226;2022-08-03T05:08:51;100302.19;;;30.18;42.25
56241;BME280;42155;53.096;23.226;2022-08-03T05:10:51;100304.06;;;30.18;41.71
56241;BME280;42155;53.096;23.226;2022-08-03T05:12:51;100300.19;;;30.14;42.05
56241;BME280;42155;53.096;23.226;2022-08-03T05:14:52;100303.84;;;30.08;41.94
56241;BME280;42155;53.096;23.226;2022-08-03T05:16:52;100305.16;;;30.05;42.41
56241;BME280;42155;53.096;23.226;2022-08-03T05:18:52;100305.28;;;30.10;42.63
56241;BME280;42155;53.096;23.226;2022-08-03T05:20:53;100300.19;;;30.14;41.90
56241;BME280;42155;53.096;23.226;2022-08-03T05:22:53;100293.22;;;30.11;41.97
56241;BME280;42155;53.096;23.226;2022-08-03T05:24:54;100297.06;;;30.10;42.33
56241;BME280;42155;53.096;23.226;2022-08-03T05:26:54;100305.28;;;30.10;42.30
56241;BME280;42155;53.096;23.226;2022-08-03T05:28:54;100309.09;;;30.09;42.46
56241;BME280;42155;53.096;23.226;2022-08-03T05:30:55;100305.38;;;30.04;42.79
56241;BME280;42155;53.096;23.226;2022-08-03T05:32:55;100311.38;;;30.01;42.67
56241;BME280;42155;53.096;23.226;2022-08-03T05:34:55;100302.34;;;30.00;42.58
56241;BME280;42155;53.096;23.226;2022-08-03T05:36:56;100302.41;;;29.65;42.92
56241;BME280;42155;53.096;23.226;2022-08-03T05:38:56;100293.38;;;29.06;44.14
56241;BME280;42155;53.096;23.226;2022-08-03T05:40:56;100312.44;;;28.40;45.99
56241;BME280;42155;53.096;23.226;2022-08-03T05:42:57;100310.97;;;28.08;46.60
56241;BME280;42155;53.096;23.226;2022-08-03T05:44:58;100315.75;;;28.12;46.78
56241;BME280;42155;53.096;23.226;2022-08-03T05:46:58;100282.06;;;28.18;45.51
56241;BME280;42155;53.096;23.226;2022-08-03T05:48:58;100305.84;;;28.60;44.71
56241;BME280;42155;53.096;23.226;2022-08-03T05:50:59;100311.03;;;28.91;44.87
56241;BME280;42155;53.096;23.226;2022-08-03T05:52:59;100281.25;;;29.02;43.69
56241;BME280;42155;53.096;23.226;2022-08-03T05:54:59;100315.94;;;29.48;43.64
56241;BME280;42155;53.096;23.226;2022-08-03T05:57:00;100281.00;;;29.62;42.68
56241;BME280;42155;53.096;23.226;2022-08-03T05:59:00;100278.09;;;29.80;42.49
56241;BME280;42155;53.096;23.226;2022-08-03T06:01:00;100309.78;;;30.16;41.88
56241;BME280;42155;53.096;23.226;2022-08-03T06:03:01;100313.84;;;30.42;41.55
56241;BME280;42155;53.096;23.226;2022-08-03T06:05:02;100319.31;;;30.71;41.41
56241;BME280;42155;53.096;23.226;2022-08-03T06:07:02;100302.97;;;30.76;40.86
56241;BME280;42155;53.096;23.226;2022-08-03T06:09:02;100321.22;;;30.87;40.42
56241;BME280;42155;53.096;23.226;2022-08-03T06:11:03;100312.91;;;30.65;39.78
56241;BME280;42155;53.096;23.226;2022-08-03T06:13:03;100279.34;;;30.41;39.97
56241;BME280;42155;53.096;23.226;2022-08-03T06:15:04;100323.31;;;30.80;39.97
56241;BME280;42155;53.096;23.226;2022-08-03T06:17:04;100322.00;;;31.00;39.64
56241;BME280;42155;53.096;23.226;2022-08-03T06:19:04;100316.66;;;31.10;39.40
56241;BME280;42155;53.096;23.226;2022-08-03T06:21:07;100312.69;;;31.01;38.69
56241;BME280;42155;53.096;23.226;2022-08-03T06:23:07;100322.59;;;31.02;38.81
56241;BME280;42155;53.096;23.226;2022-08-03T06:25:08;100327.31;;;30.89;39.16
56241;BME280;42155;53.096;23.226;2022-08-03T06:27:08;100325.03;;;30.69;40.37
56241;BME280;42155;53.096;23.226;2022-08-03T06:29:08;100327.81;;;30.58;40.19
56241;BME280;42155;53.096;23.226;2022-08-03T06:31:09;100329.03;;;30.50;40.37
56241;BME280;42155;53.096;23.226;2022-08-03T06:33:09;100325.28;;;30.39;40.41
56241;BME280;42155;53.096;23.226;2022-08-03T06:35:09;100332.38;;;30.24;40.61
56241;BME280;42155;53.096;23.226;2022-08-03T06:37:10;100330.28;;;30.02;41.92
56241;BME280;42155;53.096;23.226;2022-08-03T06:39:10;100328.28;;;29.98;41.01
56241;BME280;42155;53.096;23.226;2022-08-03T06:41:10;100326.72;;;30.02;41.94
56241;BME280;42155;53.096;23.226;2022-08-03T06:43:11;100311.63;;;29.87;40.95
56241;BME280;42155;53.096;23.226;2022-08-03T06:45:11;100332.09;;;29.97;40.59
56241;BME280;42155;53.096;23.226;2022-08-03T06:47:12;100328.28;;;29.98;41.13
56241;BME280;42155;53.096;23.226;2022-08-03T06:49:12;100330.03;;;30.04;41.64
56241;BME280;42155;53.096;23.226;2022-08-03T06:51:13;100328.00;;;30.11;40.97
56241;BME280;42155;53.096;23.226;2022-08-03T06:53:13;100329.66;;;30.12;39.88
56241;BME280;42155;53.096;23.226;2022-08-03T06:55:13;100332.09;;;29.97;39.87
56241;BME280;42155;53.096;23.226;2022-08-03T06:57:14;100328.53;;;29.84;40.41
56241;BME280;42155;53.096;23.226;2022-08-03T06:59:14;100331.78;;;29.70;40.94
56241;BME280;42155;53.096;23.226;2022-08-03T07:01:14;100336.66;;;29.56;40.52
56241;BME280;42155;53.096;23.226;2022-08-03T07:03:15;100335.09;;;29.48;40.91
56241;BME280;42155;53.096;23.226;2022-08-03T07:05:16;100332.38;;;29.36;40.92
56241;BME280;42155;53.096;23.226;2022-08-03T07:07:16;100331.88;;;29.16;40.76
56241;BME280;42155;53.096;23.226;2022-08-03T07:09:17;100337.00;;;29.24;41.83
56241;BME280;42155;53.096;23.226;2022-08-03T07:11:17;100322.97;;;29.32;41.00
56241;BME280;42155;53.096;23.226;2022-08-03T07:13:17;100316.56;;;29.50;41.02
56241;BME280;42155;53.096;23.226;2022-08-03T07:15:18;100325.69;;;29.79;40.51
56241;BME280;42155;53.096;23.226;2022-08-03T07:17:18;100337.06;;;30.00;40.61
56241;BME280;42155;53.096;23.226;2022-08-03T07:19:18;100335.13;;;30.12;40.38
56241;BME280;42155;53.096;23.226;2022-08-03T07:21:19;100331.16;;;30.31;40.23
56241;BME280;42155;53.096;23.226;2022-08-03T07:23:19;100330.56;;;30.29;39.94
56241;BME280;42155;53.096;23.226;2022-08-03T07:25:20;100327.53;;;30.42;40.00
56241;BME280;42155;53.096;23.226;2022-08-03T07:27:20;100326.63;;;30.37;40.25
56241;BME280;42155;53.096;23.226;2022-08-03T07:29:20;100328.13;;;30.44;39.30
56241;BME280;42155;53.096;23.226;2022-08-03T07:31:21;100325.03;;;30.41;40.49
56241;BME280;42155;53.096;23.226;2022-08-03T07:33:21;100328.31;;;30.26;40.30
56241;BME280;42155;53.096;23.226;2022-08-03T07:35:21;100326.09;;;30.00;40.47
56241;BME280;42155;53.096;23.226;2022-08-03T07:37:22;100321.75;;;29.87;40.34
56241;BME280;42155;53.096;23.226;2022-08-03T07:39:22;100324.50;;;29.75;40.29
56241;BME280;42155;53.096;23.226;2022-08-03T07:41:23;100327.75;;;29.72;40.27
56241;BME280;42155;53.096;23.226;2022-08-03T07:43:23;100317.75;;;29.66;40.47
56241;BME280;42155;53.096;23.226;2022-08-03T07:45:23;100331.41;;;29.54;41.39
56241;BME280;42155;53.096;23.226;2022-08-03T07:47:26;100324.97;;;29.25;40.64
56241;BME280;42155;53.096;23.226;2022-08-03T07:49:26;100320.00;;;28.99;42.44
56241;BME280;42155;53.096;23.226;2022-08-03T07:51:27;100330.59;;;29.18;41.33
56241;BME280;42155;53.096;23.226;2022-08-03T07:53:27;100338.06;;;29.35;41.59
56241;BME280;42155;53.096;23.226;2022-08-03T07:55:28;100325.09;;;29.30;41.40
56241;BME280;42155;53.096;23.226;2022-08-03T07:57:28;100333.91;;;29.32;41.54
56241;BME280;42155;53.096;23.226;2022-08-03T07:59:28;100332.59;;;29.23;41.51
56241;BME280;42155;53.096;23.226;2022-08-03T08:01:29;100332.81;;;29.10;41.06
56241;BME280;42155;53.096;23.226;2022-08-03T08:03:29;100334.34;;;28.94;42.16
56241;BME280;42155;53.096;23.226;2022-08-03T08:05:30;100342.38;;;28.77;41.50
56241;BME280;42155;53.096;23.226;2022-08-03T08:07:30;100332.06;;;28.49;42.82
56241;BME280;42155;53.096;23.226;2022-08-03T08:09:31;100337.59;;;28.42;43.74
56241;BME280;42155;53.096;23.226;2022-08-03T08:11:31;100345.53;;;28.14;43.98
56241;BME280;42155;53.096;23.226;2022-08-03T08:13:32;100332.81;;;27.89;44.12
56241;BME280;42155;53.096;23.226;2022-08-03T08:15:32;100342.59;;;27.79;44.56
56241;BME280;42155;53.096;23.226;2022-08-03T08:17:47;100337.09;;;27.60;44.19
56241;BME280;42155;53.096;23.226;2022-08-03T08:19:47;100352.91;;;27.52;45.32
56241;BME280;42155;53.096;23.226;2022-08-03T08:21:48;100347.00;;;27.36;44.92
56241;BME280;42155;53.096;23.226;2022-08-03T08:23:48;100352.56;;;27.23;45.54
56241;BME280;42155;53.096;23.226;2022-08-03T08:25:50;100358.13;;;27.10;47.33
56241;BME280;42155;53.096;23.226;2022-08-03T08:27:50;100353.34;;;26.99;48.45
56241;BME280;42155;53.096;23.226;2022-08-03T08:29:51;100364.53;;;26.90;48.85
56241;BME280;42155;53.096;23.226;2022-08-03T08:31:51;100361.91;;;26.77;50.33
56241;BME280;42155;53.096;23.226;2022-08-03T08:33:51;100356.09;;;26.67;51.14
56241;BME280;42155;53.096;23.226;2022-08-03T08:35:52;100339.25;;;26.38;52.30
56241;BME280;42155;53.096;23.226;2022-08-03T08:37:52;100369.16;;;26.52;53.15
56241;BME280;42155;53.096;23.226;2022-08-03T08:39:55;100362.66;;;26.53;54.25
56241;BME280;42155;53.096;23.226;2022-08-03T08:41:55;100374.34;;;26.60;53.97
56241;BME280;42155;53.096;23.226;2022-08-03T08:43:55;100372.81;;;26.71;54.26
56241;BME280;42155;53.096;23.226;2022-08-03T08:45:56;100375.44;;;26.84;52.51
56241;BME280;42155;53.096;23.226;2022-08-03T08:47:58;100366.03;;;26.86;50.46
56241;BME280;42155;53.096;23.226;2022-08-03T08:50:02;100373.56;;;26.84;50.75
56241;BME280;42155;53.096;23.226;2022-08-03T08:52:03;100370.25;;;26.76;50.32
56241;BME280;42155;53.096;23.226;2022-08-03T08:54:06;100365.34;;;26.59;50.15
56241;BME280;42155;53.096;23.226;2022-08-03T08:56:07;100305.06;;;26.11;50.20
56241;BME280;42155;53.096;23.226;2022-08-03T08:58:09;100370.31;;;26.69;50.57
56241;BME280;42155;53.096;23.226;2022-08-03T09:00:10;100373.13;;;26.87;49.27
56241;BME280;42155;53.096;23.226;2022-08-03T09:02:11;100375.13;;;26.99;48.41
56241;BME280;42155;53.096;23.226;2022-08-03T09:04:12;100367.75;;;27.06;47.74
56241;BME280;42155;53.096;23.226;2022-08-03T09:06:12;100378.03;;;27.10;47.13
56241;BME280;42155;53.096;23.226;2022-08-03T09:08:13;100371.06;;;27.39;47.92
56241;BME280;42155;53.096;23.226;2022-08-03T09:10:15;100366.91;;;27.80;46.30
56241;BME280;42155;53.096;23.226;2022-08-03T09:12:16;100359.84;;;28.09;45.33
56241;BME280;42155;53.096;23.226;2022-08-03T09:14:18;100369.22;;;28.32;43.12
56241;BME280;42155;53.096;23.226;2022-08-03T09:16:21;100365.06;;;28.29;43.90
56241;BME280;42155;53.096;23.226;2022-08-03T09:18:28;100359.47;;;28.24;44.54
56241;BME280;42155;53.096;23.226;2022-08-03T09:20:32;100364.72;;;28.07;43.08
56241;BME280;42155;53.096;23.226;2022-08-03T09:22:33;100368.28;;;27.89;43.54
56241;BME280;42155;53.096;23.226;2022-08-03T09:24:34;100339.16;;;27.65;43.06
56241;BME280;42155;53.096;23.226;2022-08-03T09:26:36;100368.38;;;27.58;43.75
56241;BME280;42155;53.096;23.226;2022-08-03T09:28:36;100353.59;;;27.22;44.22
56241;BME280;42155;53.096;23.226;2022-08-03T09:30:40;100370.63;;;27.17;44.45
56241;BME280;42155;53.096;23.226;2022-08-03T09:32:41;100369.66;;;27.05;46.00
56241;BME280;42155;53.096;23.226;2022-08-03T09:34:42;100363.78;;;27.08;45.28
56241;BME280;42155;53.096;23.226;2022-08-03T09:36:51;100359.84;;;27.29;45.80
56241;BME280;42155;53.096;23.226;2022-08-03T09:39:12;100347.72;;;27.25;44.86
56241;BME280;42155;53.096;23.226;2022-08-03T09:41:18;100365.00;;;27.37;44.15
56241;BME280;42155;53.096;23.226;2022-08-03T09:43:19;100361.22;;;27.38;44.77
56241;BME280;42155;53.096;23.226;2022-08-03T09:45:26;100370.09;;;27.52;44.37
56241;BME280;42155;53.096;23.226;2022-08-03T09:47:35;100356.25;;;27.54;44.18
56241;BME280;42155;53.096;23.226;2022-08-03T09:49:36;100361.53;;;27.74;44.97
56241;BME280;42155;53.096;23.226;2022-08-03T09:51:38;100357.50;;;27.95;45.25
56241;BME280;42155;53.096;23.226;2022-08-03T09:53:43;100351.31;;;28.06;42.92
56241;BME280;42155;53.096;23.226;2022-08-03T09:55:54;100355.59;;;28.13;43.42
56241;BME280;42155;53.096;23.226;2022-08-03T09:58:04;100354.31;;;28.16;43.53
56241;BME280;42155;53.096;23.226;2022-08-03T10:00:10;100354.22;;;28.23;42.84
56241;BME280;42155;53.096;23.226;2022-08-03T10:02:25;100347.00;;;28.28;41.66
56241;BME280;42155;53.096;23.226;2022-08-03T10:04:25;100350.13;;;28.32;42.26
56241;BME280;42155;53.096;23.226;2022-08-03T10:06:26;100340.38;;;28.24;41.86
56241;BME280;42155;53.096;23.226;2022-08-03T10:08:26;100337.31;;;28.32;42.98
56241;BME280;42155;53.096;23.226;2022-08-03T10:10:41;100343.41;;;28.34;41.91
56241;BME280;42155;53.096;23.226;2022-08-03T10:12:42;100344.91;;;28.30;41.97
56241;BME280;42155;53.096;23.226;2022-08-03T10:14:43;100346.19;;;28.28;42.25
56241;BME280;42155;53.096;23.226;2022-08-03T10:16:45;100349.97;;;28.27;42.07
56241;BME280;42155;53.096;23.226;2022-08-03T10:18:45;100342.03;;;28.25;39.82
56241;BME280;42155;53.096;23.226;2022-08-03T10:20:51;100337.03;;;28.04;38.55
56241;BME280;42155;53.096;23.226;2022-08-03T10:22:52;100343.28;;;27.92;38.48
56241;BME280;42155;53.096;23.226;2022-08-03T10:24:59;100339.25;;;27.95;38.47
56241;BME280;42155;53.096;23.226;2022-08-03T10:27:02;100342.06;;;28.07;38.92
56241;BME280;42155;53.096;23.226;2022-08-03T10:29:05;100343.31;;;28.23;38.21
56241;BME280;42155;53.096;23.226;2022-08-03T10:31:09;100329.75;;;28.16;37.36
56241;BME280;42155;53.096;23.226;2022-08-03T10:33:27;100332.22;;;28.06;38.81
56241;BME280;42155;53.096;23.226;2022-08-03T10:35:31;100332.94;;;28.13;40.88
56241;BME280;42155;53.096;23.226;2022-08-03T10:37:40;100334.06;;;28.24;40.02
56241;BME280;42155;53.096;23.226;2022-08-03T10:39:43;100338.38;;;28.31;40.89
56241;BME280;42155;53.096;23.226;2022-08-03T10:41:44;100335.13;;;28.41;41.11
56241;BME280;42155;53.096;23.226;2022-08-03T10:44:07;100332.75;;;28.45;39.59
56241;BME280;42155;53.096;23.226;2022-08-03T10:46:08;100343.72;;;28.56;40.63